Time;durP1;ratioP1;P1;durP2;ratioP2;P2;SDS_P1;SDS_P2;PMS_P1;PMS_P2;Temp;Humidity;BMP_temperature;BMP_pressure;BME280_temperature;BME280_humidity;BME280_pressure;Samples;Min_cycle;Max_cycle;Signal;HPM_P1;HPM_P2
2022/09/06 00:00:42;;;;;;;1.33;1.23;;;18.70;99.90;;;;;;5052832;28;20461;-78
2022/09/06 00:03:09;;;;;;;1.17;0.87;;;18.80;99.90;;;;;;5052704;28;20512;-79
2022/09/06 00:05:37;;;;;;;1.60;1.00;;;18.80;99.90;;;;;;5052821;28;20453;-79
2022/09/06 00:08:05;;;;;;;1.37;1.27;;;18.80;99.90;;;;;;5052808;28;20450;-79
2022/09/06 00:10:33;;;;;;;1.43;0.90;;;18.80;99.90;;;;;;5055575;28;20449;-79
2022/09/06 00:13:04;;;;;;;1.23;0.90;;;18.80;99.90;;;;;;5056441;28;20480;-80
2022/09/06 00:15:32;;;;;;;1.63;0.70;;;18.80;99.90;;;;;;5056429;28;20485;-81
2022/09/06 00:18:00;;;;;;;0.70;0.70;;;18.80;99.90;;;;;;5056164;28;20446;-81
2022/09/06 00:20:27;;;;;;;1.07;0.90;;;18.80;99.90;;;;;;5056368;28;20456;-81
2022/09/06 00:22:57;;;;;;;1.80;0.90;;;18.80;99.90;;;;;;5056274;28;20469;-81
2022/09/06 00:25:25;;;;;;;1.90;0.80;;;18.80;99.90;;;;;;5056289;28;20438;-79
2022/09/06 00:27:55;;;;;;;1.07;0.80;;;18.80;99.90;;;;;;5055837;28;20481;-78
2022/09/06 00:30:22;;;;;;;1.27;1.17;;;18.80;99.90;;;;;;5056230;28;20454;-78
2022/09/06 00:32:49;;;;;;;1.50;1.37;;;18.80;99.90;;;;;;5056094;28;20473;-78
2022/09/06 00:35:16;;;;;;;1.00;0.90;;;18.80;99.90;;;;;;5056039;28;20631;-78
2022/09/06 00:37:43;;;;;;;1.23;0.83;;;18.80;99.90;;;;;;5055795;28;20430;-78
2022/09/06 00:40:10;;;;;;;0.80;0.80;;;18.80;99.90;;;;;;5056015;28;20442;-78
2022/09/06 00:42:39;;;;;;;0.87;0.70;;;18.80;99.90;;;;;;5055657;28;20461;-78
2022/09/06 00:45:07;;;;;;;0.60;0.60;;;18.70;99.90;;;;;;5055943;28;20441;-79
2022/09/06 00:47:35;;;;;;;2.70;1.30;;;18.80;99.90;;;;;;5055712;28;20461;-79
2022/09/06 00:50:03;;;;;;;0.90;0.70;;;18.80;99.90;;;;;;5055540;28;20969;-79
2022/09/06 00:52:30;;;;;;;1.53;1.00;;;18.80;99.90;;;;;;5055410;28;20472;-79
2022/09/06 00:54:57;;;;;;;0.93;0.93;;;18.80;99.90;;;;;;5055631;28;20496;-79
2022/09/06 00:57:26;;;;;;;2.33;0.80;;;18.80;99.90;;;;;;5055680;28;20454;-79
2022/09/06 00:59:55;;;;;;;0.67;0.67;;;18.80;99.90;;;;;;5055705;28;20454;-78
2022/09/06 01:02:22;;;;;;;1.63;0.90;;;18.80;99.90;;;;;;5055505;28;20469;-78
2022/09/06 01:04:50;;;;;;;1.10;1.00;;;18.70;99.90;;;;;;5055556;28;20450;-78
2022/09/06 01:07:29;;;;;;;1.90;0.90;;;18.70;99.90;;;;;;5055483;28;20495;-78
2022/09/06 01:10:13;;;;;;;0.90;0.80;;;18.70;99.90;;;;;;5055252;28;20757;-79
2022/09/06 01:12:47;;;;;;;1.23;0.80;;;18.60;99.90;;;;;;5055420;28;20454;-78
2022/09/06 01:15:27;;;;;;;2.07;1.17;;;18.50;99.90;;;;;;5055356;28;20807;-79
2022/09/06 01:18:04;;;;;;;0.83;0.83;;;18.50;99.90;;;;;;5055398;28;20429;-79
2022/09/06 01:20:58;;;;;;;1.33;0.80;;;18.50;99.90;;;;;;5055056;28;20410;-78
2022/09/06 01:23:54;;;;;;;1.10;0.90;;;18.40;99.90;;;;;;5052737;28;20485;-79
2022/09/06 01:26:59;;;;;;;4.43;1.00;;;18.40;99.90;;;;;;5054924;28;20476;-79
2022/09/06 01:29:33;;;;;;;1.27;1.13;;;18.30;99.90;;;;;;5037081;28;20442;-79
2022/09/06 01:32:07;;;;;;;0.70;0.70;;;18.30;99.90;;;;;;5054820;28;20507;-79
2022/09/06 01:34:39;;;;;;;1.13;1.03;;;18.30;99.90;;;;;;5054986;28;20470;-79
2022/09/06 01:37:11;;;;;;;2.30;1.50;;;18.30;99.90;;;;;;5054695;28;20437;-79
2022/09/06 01:39:40;;;;;;;0.63;0.63;;;18.30;99.90;;;;;;5054613;28;20933;-79
2022/09/06 01:42:10;;;;;;;0.70;0.70;;;18.30;99.90;;;;;;5054733;28;20494;-79
2022/09/06 01:44:40;;;;;;;1.23;0.93;;;18.20;99.90;;;;;;5054848;28;20431;-79
2022/09/06 01:47:19;;;;;;;0.87;0.67;;;18.20;99.90;;;;;;5054772;28;20434;-78
2022/09/06 01:49:57;;;;;;;1.77;0.73;;;18.20;99.90;;;;;;5055053;28;20419;-78
2022/09/06 01:52:33;;;;;;;1.60;0.93;;;18.20;99.90;;;;;;5054581;28;20501;-78
2022/09/06 01:55:14;;;;;;;1.23;0.80;;;18.20;99.90;;;;;;5054559;28;20469;-78
2022/09/06 01:57:54;;;;;;;1.30;0.90;;;18.20;99.90;;;;;;5054628;28;20410;-78
2022/09/06 02:00:23;;;;;;;0.80;0.80;;;18.10;99.90;;;;;;5054536;28;20445;-78
2022/09/06 02:02:59;;;;;;;0.60;0.60;;;18.10;99.90;;;;;;5054385;28;20469;-78
2022/09/06 02:05:29;;;;;;;1.27;1.03;;;18.10;99.90;;;;;;5054705;28;20429;-78
2022/09/06 02:08:00;;;;;;;1.10;1.00;;;18.10;99.90;;;;;;5054402;28;20438;-78
2022/09/06 02:10:33;;;;;;;0.60;0.60;;;18.20;99.90;;;;;;5054371;28;20434;-78
2022/09/06 02:13:01;;;;;;;1.00;0.90;;;18.20;99.90;;;;;;5054224;28;20568;-78
2022/09/06 02:15:32;;;;;;;0.90;0.90;;;18.20;99.90;;;;;;5053898;28;20973;-78
2022/09/06 02:18:03;;;;;;;0.70;0.70;;;18.20;99.90;;;;;;5054194;28;20437;-78
2022/09/06 02:20:32;;;;;;;0.93;0.90;;;18.30;99.90;;;;;;5054172;28;20437;-78
2022/09/06 02:23:03;;;;;;;1.77;1.00;;;18.30;99.90;;;;;;5053977;28;20474;-78
2022/09/06 02:25:36;;;;;;;1.30;1.17;;;18.30;99.90;;;;;;5054334;28;20461;-78
2022/09/06 02:28:04;;;;;;;1.03;0.93;;;18.30;99.90;;;;;;5053586;28;21000;-79
2022/09/06 02:30:34;;;;;;;1.20;1.10;;;18.30;99.90;;;;;;5053961;28;20435;-79
2022/09/06 02:33:08;;;;;;;1.13;1.00;;;18.40;99.90;;;;;;5053615;28;20470;-79
2022/09/06 02:35:42;;;;;;;0.87;0.87;;;18.40;99.90;;;;;;5053836;28;20489;-79
2022/09/06 02:38:09;;;;;;;0.70;0.70;;;18.40;99.90;;;;;;5053598;28;20418;-79
2022/09/06 02:40:36;;;;;;;2.13;1.07;;;18.50;99.90;;;;;;5053524;28;20807;-79
2022/09/06 02:43:03;;;;;;;1.37;0.70;;;18.50;99.90;;;;;;5053426;28;20988;-79
2022/09/06 02:45:31;;;;;;;1.23;0.70;;;18.50;99.90;;;;;;5053457;28;20445;-79
2022/09/06 02:47:58;;;;;;;0.80;0.80;;;18.50;99.90;;;;;;5053628;28;20450;-79
2022/09/06 02:50:25;;;;;;;1.30;1.20;;;18.60;99.90;;;;;;5053399;28;20438;-78
2022/09/06 02:53:02;;;;;;;0.70;0.70;;;18.50;99.90;;;;;;5053563;28;20474;-78
2022/09/06 02:55:28;;;;;;;1.33;1.23;;;18.60;99.90;;;;;;5053509;28;20469;-78
2022/09/06 02:57:55;;;;;;;1.83;0.90;;;18.60;99.90;;;;;;5053221;28;20953;-78
2022/09/06 03:00:22;;;;;;;1.13;1.03;;;18.70;99.90;;;;;;5053500;28;20450;-79
2022/09/06 03:02:50;;;;;;;1.83;1.60;;;18.70;99.90;;;;;;5053389;28;20469;-79
2022/09/06 03:05:17;;;;;;;2.13;0.90;;;18.70;99.90;;;;;;5054264;28;20788;-79
2022/09/06 03:07:44;;;;;;;1.27;0.90;;;18.70;99.90;;;;;;5053413;28;20507;-80
2022/09/06 03:10:10;;;;;;;1.70;0.97;;;18.70;99.90;;;;;;5053334;28;20448;-80
2022/09/06 03:12:37;;;;;;;1.00;0.80;;;18.70;99.90;;;;;;5053043;28;20996;-80
2022/09/06 03:15:05;;;;;;;1.03;0.70;;;18.70;99.90;;;;;;5052936;28;20478;-80
2022/09/06 03:17:31;;;;;;;1.10;1.00;;;18.70;99.90;;;;;;5052967;28;20945;-80
2022/09/06 03:19:59;;;;;;;2.27;1.23;;;18.80;99.90;;;;;;5053228;28;20450;-80
2022/09/06 03:22:26;;;;;;;4.50;1.37;;;18.80;99.90;;;;;;5053167;28;20469;-80
2022/09/06 03:24:53;;;;;;;1.50;1.40;;;18.70;99.90;;;;;;5053193;28;20438;-79
2022/09/06 03:27:20;;;;;;;1.70;1.10;;;18.70;99.90;;;;;;5052725;28;20473;-78
2022/09/06 03:29:46;;;;;;;1.17;1.07;;;18.70;99.90;;;;;;5053719;28;20449;-79
2022/09/06 03:32:13;;;;;;;1.67;0.90;;;18.60;99.90;;;;;;5053088;28;20470;-78
2022/09/06 03:34:40;;;;;;;1.00;0.73;;;18.60;99.90;;;;;;5052824;28;20449;-78
2022/09/06 03:37:08;;;;;;;0.83;0.80;;;18.50;99.90;;;;;;5053156;28;20434;-78
2022/09/06 03:39:35;;;;;;;1.27;0.90;;;18.60;99.90;;;;;;5053075;28;20449;-78
2022/09/06 03:42:01;;;;;;;1.17;1.10;;;18.50;99.90;;;;;;5052688;28;20989;-78
2022/09/06 03:44:28;;;;;;;0.80;0.70;;;18.50;99.90;;;;;;5055095;28;20445;-78
2022/09/06 03:46:55;;;;;;;1.10;1.00;;;18.50;99.90;;;;;;5056714;28;20437;-78
2022/09/06 03:49:22;;;;;;;2.27;0.90;;;18.40;99.90;;;;;;5056725;28;20438;-78
2022/09/06 03:51:48;;;;;;;1.97;1.10;;;18.30;99.90;;;;;;5056587;28;20438;-78
2022/09/06 03:54:16;;;;;;;1.93;0.93;;;18.30;99.90;;;;;;5056917;28;20536;-78
2022/09/06 03:56:43;;;;;;;0.97;0.53;;;18.30;99.90;;;;;;5056571;28;20836;-78
2022/09/06 03:59:10;;;;;;;0.70;0.70;;;18.30;99.90;;;;;;5057104;28;20505;-78
2022/09/06 04:01:36;;;;;;;1.57;1.23;;;18.20;99.90;;;;;;5056645;28;20453;-78
2022/09/06 04:04:03;;;;;;;2.00;0.80;;;18.20;99.90;;;;;;5056407;28;20934;-78
2022/09/06 04:06:30;;;;;;;1.70;0.93;;;18.10;99.90;;;;;;5056636;28;20446;-79
2022/09/06 04:08:57;;;;;;;1.73;1.07;;;18.10;99.90;;;;;;5056400;28;20437;-78
2022/09/06 04:11:25;;;;;;;0.97;0.60;;;18.10;99.90;;;;;;5056651;28;20491;-78
2022/09/06 04:13:52;;;;;;;1.90;0.93;;;18.10;99.90;;;;;;5056480;28;20475;-79
2022/09/06 04:16:18;;;;;;;1.20;1.00;;;18.10;99.90;;;;;;5056150;28;20480;-79
2022/09/06 04:18:45;;;;;;;1.00;0.93;;;18.10;99.90;;;;;;5056430;28;20460;-78
2022/09/06 04:21:12;;;;;;;1.03;0.90;;;18.10;99.90;;;;;;5056411;28;20446;-78
2022/09/06 04:23:39;;;;;;;0.90;0.70;;;18.00;99.90;;;;;;5056274;28;20465;-78
2022/09/06 04:26:06;;;;;;;1.23;0.93;;;18.00;99.90;;;;;;5056045;28;20485;-77
2022/09/06 04:28:34;;;;;;;0.80;0.80;;;18.10;99.90;;;;;;5056299;28;20426;-77
2022/09/06 04:31:02;;;;;;;0.80;0.80;;;18.10;99.90;;;;;;5056152;28;20806;-77
2022/09/06 04:33:30;;;;;;;1.07;0.80;;;18.20;99.90;;;;;;5056106;28;20469;-77
2022/09/06 04:35:59;;;;;;;2.90;1.20;;;18.20;99.90;;;;;;5056036;28;20500;-77
2022/09/06 04:38:27;;;;;;;0.70;0.70;;;18.20;99.90;;;;;;5055732;28;20941;-77
2022/09/06 04:40:54;;;;;;;0.70;0.70;;;18.30;99.90;;;;;;5056558;28;20810;-77
2022/09/06 04:43:21;;;;;;;11.00;1.03;;;18.30;99.90;;;;;;5055969;28;20519;-77
2022/09/06 04:45:49;;;;;;;1.20;0.90;;;18.30;99.90;;;;;;5055949;28;20446;-77
2022/09/06 04:48:16;;;;;;;0.97;0.83;;;18.30;99.90;;;;;;5055915;28;20450;-77
2022/09/06 04:50:43;;;;;;;1.93;1.10;;;18.30;99.90;;;;;;5055851;28;20482;-77
2022/09/06 04:53:10;;;;;;;1.13;0.90;;;18.30;99.90;;;;;;5055717;28;20472;-77
2022/09/06 04:55:37;;;;;;;0.93;0.90;;;18.30;99.90;;;;;;5055333;28;20481;-77
2022/09/06 04:58:05;;;;;;;1.30;1.20;;;18.30;99.90;;;;;;5055424;28;20830;-77
2022/09/06 05:00:33;;;;;;;0.80;0.80;;;18.30;99.90;;;;;;5055430;28;20448;-77
2022/09/06 05:03:02;;;;;;;1.53;1.10;;;18.30;99.90;;;;;;5055553;28;20466;-77
2022/09/06 05:05:28;;;;;;;0.77;0.77;;;18.20;99.90;;;;;;5055355;28;20440;-77
2022/09/06 05:07:56;;;;;;;1.83;1.00;;;18.20;99.90;;;;;;5055534;28;20465;-77
2022/09/06 05:10:24;;;;;;;2.13;1.37;;;18.20;99.90;;;;;;5055497;28;20458;-77
2022/09/06 05:12:51;;;;;;;1.23;1.13;;;18.20;99.90;;;;;;5055095;28;20477;-77
2022/09/06 05:15:18;;;;;;;0.93;0.93;;;18.20;99.90;;;;;;5055029;28;20453;-77
2022/09/06 05:17:45;;;;;;;1.47;1.10;;;18.20;99.90;;;;;;5055362;28;20456;-80
2022/09/06 05:20:14;;;;;;;0.80;0.80;;;18.20;99.90;;;;;;5055055;28;20434;-78
2022/09/06 05:22:41;;;;;;;2.07;0.70;;;18.20;99.90;;;;;;5055169;28;20469;-78
2022/09/06 05:25:09;;;;;;;0.80;0.80;;;18.20;99.90;;;;;;5055307;28;20470;-78
2022/09/06 05:27:36;;;;;;;1.03;0.90;;;18.20;99.90;;;;;;5054722;28;20481;-78
2022/09/06 05:30:03;;;;;;;1.10;1.00;;;18.30;99.90;;;;;;5054884;28;20437;-78
2022/09/06 05:32:30;;;;;;;1.37;1.10;;;18.30;99.90;;;;;;5054777;28;20465;-78
2022/09/06 05:34:56;;;;;;;0.90;0.90;;;18.30;99.90;;;;;;5054760;28;20450;-78
2022/09/06 05:37:25;;;;;;;1.07;0.63;;;18.20;99.90;;;;;;5054558;28;20487;-78
2022/09/06 05:39:51;;;;;;;1.60;1.23;;;18.20;99.90;;;;;;5054636;28;20434;-79
2022/09/06 05:42:18;;;;;;;0.83;0.83;;;18.20;99.90;;;;;;5054750;28;20470;-78
2022/09/06 05:44:45;;;;;;;2.40;0.77;;;18.20;99.90;;;;;;5054869;28;20453;-78
2022/09/06 05:47:12;;;;;;;2.23;0.80;;;18.20;99.90;;;;;;5054791;28;20449;-79
2022/09/06 05:49:39;;;;;;;1.30;0.93;;;18.30;99.90;;;;;;5054760;28;20473;-79
2022/09/06 05:52:05;;;;;;;1.80;0.87;;;18.20;99.90;;;;;;5054652;28;20480;-78
2022/09/06 05:54:33;;;;;;;2.00;1.13;;;18.30;99.90;;;;;;5054617;28;20446;-79
2022/09/06 05:57:01;;;;;;;1.20;1.10;;;18.30;99.90;;;;;;5054491;28;20496;-79
2022/09/06 05:59:27;;;;;;;2.30;1.10;;;18.30;99.90;;;;;;5054585;28;20500;-79
2022/09/06 06:01:54;;;;;;;0.80;0.70;;;18.30;99.90;;;;;;5054416;28;20481;-79
2022/09/06 06:04:22;;;;;;;0.93;0.80;;;18.30;99.90;;;;;;5054490;28;20524;-79
2022/09/06 06:06:49;;;;;;;0.93;0.83;;;18.40;99.90;;;;;;5053655;28;20445;-79
2022/09/06 06:09:17;;;;;;;1.27;1.07;;;18.40;99.90;;;;;;5054334;28;20808;-79
2022/09/06 06:11:45;;;;;;;1.10;1.00;;;18.40;99.90;;;;;;5054256;28;20445;-79
2022/09/06 06:14:12;;;;;;;0.83;0.80;;;18.50;99.90;;;;;;5054279;28;20446;-79
2022/09/06 06:16:38;;;;;;;1.43;1.10;;;18.50;99.90;;;;;;5053811;28;21005;-79
2022/09/06 06:19:05;;;;;;;1.50;1.07;;;18.50;99.90;;;;;;5054254;28;20449;-79
2022/09/06 06:21:33;;;;;;;0.93;0.83;;;18.60;99.90;;;;;;5053748;28;20961;-79
2022/09/06 06:24:02;;;;;;;1.37;1.27;;;18.60;99.90;;;;;;5054096;28;20446;-79
2022/09/06 06:26:30;;;;;;;3.30;1.73;;;18.70;99.90;;;;;;5054033;28;20489;-79
2022/09/06 06:29:00;;;;;;;2.43;2.23;;;18.70;99.90;;;;;;5054010;28;20453;-79
2022/09/06 06:31:27;;;;;;;1.07;0.80;;;18.70;99.90;;;;;;5053979;28;20511;-79
2022/09/06 06:33:54;;;;;;;1.37;0.77;;;18.90;99.90;;;;;;5052820;28;20458;-80
2022/09/06 06:36:23;;;;;;;1.10;0.97;;;19.00;99.90;;;;;;5053819;28;20481;-81
2022/09/06 06:38:52;;;;;;;1.63;0.87;;;19.10;99.90;;;;;;5052433;28;20877;-80
2022/09/06 06:41:22;;;;;;;0.77;0.77;;;19.30;99.90;;;;;;5053723;28;20472;-81
2022/09/06 06:43:51;;;;;;;0.93;0.93;;;19.40;99.90;;;;;;5052470;28;20572;-81
2022/09/06 06:46:20;;;;;;;0.97;0.97;;;19.60;99.90;;;;;;5053441;28;20948;-81
2022/09/06 06:48:47;;;;;;;1.57;1.23;;;19.70;99.90;;;;;;5053727;28;20453;-81
2022/09/06 06:51:16;;;;;;;1.03;0.93;;;19.90;99.90;;;;;;5053741;28;20457;-81
2022/09/06 06:53:43;;;;;;;2.90;1.13;;;20.00;99.90;;;;;;5053493;28;20516;-81
2022/09/06 06:56:18;;;;;;;1.93;0.90;;;20.10;99.90;;;;;;5053208;28;20810;-81
2022/09/06 06:58:47;;;;;;;1.10;1.00;;;20.20;99.90;;;;;;5053314;28;20433;-81
2022/09/06 07:01:14;;;;;;;0.80;0.80;;;20.30;99.90;;;;;;5053418;28;20476;-81
2022/09/06 07:03:42;;;;;;;0.83;0.60;;;20.30;99.90;;;;;;5053391;28;20465;-81
2022/09/06 07:06:09;;;;;;;1.20;1.03;;;20.40;99.90;;;;;;5053150;28;20825;-81
2022/09/06 07:08:36;;;;;;;1.10;1.00;;;20.50;99.90;;;;;;5053447;28;20452;-81
2022/09/06 07:11:04;;;;;;;1.20;0.87;;;20.60;99.90;;;;;;5053101;28;20480;-81
2022/09/06 07:13:32;;;;;;;4.70;1.20;;;20.60;99.90;;;;;;5053068;28;20973;-81
2022/09/06 07:16:11;;;;;;;0.90;0.87;;;20.70;99.90;;;;;;5052963;28;20996;-81
2022/09/06 07:18:40;;;;;;;0.90;0.77;;;20.80;99.90;;;;;;5053215;28;20449;-81
2022/09/06 07:21:10;;;;;;;0.80;0.73;;;20.80;99.90;;;;;;5053334;28;20496;-82
2022/09/06 07:23:37;;;;;;;1.40;1.37;;;20.80;99.90;;;;;;5053206;28;20503;-81
2022/09/06 07:26:05;;;;;;;0.90;0.90;;;20.80;99.90;;;;;;5052980;28;20481;-81
2022/09/06 07:28:31;;;;;;;0.90;0.67;;;20.80;99.90;;;;;;5052932;28;20450;-82
2022/09/06 07:30:59;;;;;;;2.60;1.20;;;20.90;99.90;;;;;;5052911;28;20813;-82
2022/09/06 07:33:26;;;;;;;2.00;1.20;;;20.90;99.90;;;;;;5052833;28;20479;-82
2022/09/06 07:35:57;;;;;;;1.20;1.03;;;20.90;99.90;;;;;;5053139;28;20449;-82
2022/09/06 07:38:26;;;;;;;1.70;1.00;;;21.00;99.90;;;;;;5053638;28;20540;-81
2022/09/06 07:40:53;;;;;;;2.73;1.23;;;21.10;99.90;;;;;;5053233;28;20499;-81
2022/09/06 07:43:20;;;;;;;1.27;1.13;;;21.20;99.90;;;;;;5053178;28;20530;-82
2022/09/06 07:45:47;;;;;;;1.40;1.20;;;21.40;99.90;;;;;;5053024;28;20453;-81
2022/09/06 07:48:14;;;;;;;1.50;1.40;;;21.50;99.90;;;;;;5053059;28;20441;-82
2022/09/06 07:50:40;;;;;;;1.37;1.00;;;21.70;99.90;;;;;;5052684;28;20453;-81
2022/09/06 07:53:08;;;;;;;4.10;1.20;;;21.80;99.90;;;;;;5052618;28;20478;-82
2022/09/06 07:55:36;;;;;;;1.00;0.90;;;22.00;99.90;;;;;;5053162;28;20449;-82
2022/09/06 07:58:03;;;;;;;2.50;1.27;;;22.10;99.90;;;;;;5052925;28;20496;-82
2022/09/06 08:00:30;;;;;;;2.93;1.20;;;22.20;99.90;;;;;;5052700;28;20433;-81
2022/09/06 08:02:57;;;;;;;1.60;1.20;;;22.40;99.90;;;;;;5052532;28;20460;-82
2022/09/06 08:05:24;;;;;;;1.13;1.13;;;22.30;99.90;;;;;;5052541;28;20827;-82
2022/09/06 08:07:50;;;;;;;2.80;1.07;;;22.40;99.90;;;;;;5052541;28;20937;-82
2022/09/06 08:10:17;;;;;;;1.63;1.20;;;22.50;99.90;;;;;;5053000;28;20445;-82
2022/09/06 08:12:45;;;;;;;1.60;1.20;;;22.60;99.90;;;;;;5052729;28;20461;-81
2022/09/06 08:15:12;;;;;;;3.03;1.37;;;22.70;99.90;;;;;;5052787;28;20449;-82
2022/09/06 08:17:38;;;;;;;1.20;0.90;;;22.90;99.90;;;;;;5052448;28;20828;-80
2022/09/06 08:20:06;;;;;;;2.27;1.27;;;23.10;99.90;;;;;;5052743;28;20449;-82
2022/09/06 08:22:33;;;;;;;1.20;1.10;;;23.10;99.90;;;;;;5052426;28;20455;-82
2022/09/06 08:25:00;;;;;;;1.57;1.23;;;23.30;99.90;;;;;;5052608;28;20468;-82
2022/09/06 08:27:27;;;;;;;3.37;1.20;;;23.40;99.90;;;;;;5052516;28;20484;-82
2022/09/06 08:29:55;;;;;;;2.60;1.03;;;23.50;99.90;;;;;;5052976;28;20570;-82
2022/09/06 08:32:22;;;;;;;1.43;1.10;;;23.60;99.90;;;;;;5056052;28;20474;-82
2022/09/06 08:34:49;;;;;;;2.20;1.20;;;23.70;99.90;;;;;;5056244;28;20452;-82
2022/09/06 08:37:16;;;;;;;2.30;1.03;;;23.80;99.90;;;;;;5056125;28;20272;-83
2022/09/06 08:39:43;;;;;;;2.47;1.17;;;23.90;99.90;;;;;;5056078;28;20186;-81
2022/09/06 08:42:11;;;;;;;3.40;1.07;;;24.00;99.90;;;;;;5056101;28;20218;-82
2022/09/06 08:44:41;;;;;;;1.00;1.00;;;24.20;99.90;;;;;;5055779;28;20690;-82
2022/09/06 08:47:10;;;;;;;1.30;1.17;;;24.20;99.90;;;;;;5055796;28;20289;-82
2022/09/06 08:49:40;;;;;;;1.57;1.20;;;24.30;99.90;;;;;;5055654;28;20213;-82
2022/09/06 08:52:26;;;;;;;2.25;1.10;;;24.40;99.90;;;;;;5055893;28;20226;-81
2022/09/06 08:55:01;;;;;;;1.20;1.10;;;24.60;99.90;;;;;;5055631;28;20190;-86
2022/09/06 08:57:43;;;;;;;1.40;0.98;;;24.80;99.90;;;;;;5055722;28;20218;-82
2022/09/06 09:00:12;;;;;;;0.73;0.73;;;25.10;99.90;;;;;;5055860;28;20187;-82
2022/09/06 09:02:46;;;;;;;2.15;1.27;;;25.40;99.90;;;;;;5055612;28;20218;-82
2022/09/06 09:05:24;;;;;;;1.00;0.90;;;25.60;99.90;;;;;;5055705;28;20187;-82
2022/09/06 09:08:01;;;;;;;1.40;1.30;;;25.70;99.90;;;;;;5055735;28;20191;-83
2022/09/06 09:10:31;;;;;;;0.75;0.75;;;25.60;99.90;;;;;;5055309;28;20638;-81
2022/09/06 09:13:02;;;;;;;1.20;1.10;;;25.70;99.90;;;;;;5055441;28;20223;-83
2022/09/06 09:15:29;;;;;;;0.80;0.80;;;25.50;99.90;;;;;;5055502;28;20206;-82
2022/09/06 09:17:57;;;;;;;1.70;0.95;;;25.40;99.90;;;;;;5055127;28;20683;-83
2022/09/06 09:20:24;;;;;;;1.40;1.30;;;25.50;99.90;;;;;;5055838;28;20199;-82
2022/09/06 09:22:50;;;;;;;2.15;0.88;;;25.70;99.90;;;;;;5059578;28;20223;-83
2022/09/06 09:25:22;;;;;;;1.55;0.90;;;25.70;99.90;;;;;;5055137;28;20587;-83
2022/09/06 09:27:56;;;;;;;0.98;0.98;;;25.70;99.90;;;;;;5054842;28;20234;-83
2022/09/06 09:30:23;;;;;;;5.65;1.25;;;25.50;99.90;;;;;;5055734;28;20214;-83
2022/09/06 09:32:50;;;;;;;0.98;0.90;;;25.50;99.90;;;;;;5054789;28;20776;-82
2022/09/06 09:35:26;;;;;;;0.60;0.60;;;25.70;99.90;;;;;;5054994;28;20232;-83
2022/09/06 09:38:01;;;;;;;0.93;0.82;;;25.80;99.90;;;;;;5054996;28;20214;-83
2022/09/06 09:40:33;;;;;;;1.83;1.02;;;26.00;99.90;;;;;;5054973;28;20197;-83
2022/09/06 09:43:14;;;;;;;1.00;0.93;;;26.30;99.90;;;;;;5053474;28;20707;-83
2022/09/06 09:45:41;;;;;;;0.90;0.90;;;26.50;99.90;;;;;;5054924;28;20244;-82
2022/09/06 09:48:27;;;;;;;1.17;1.08;;;26.70;99.90;;;;;;5054514;28;20206;-82
2022/09/06 09:50:55;;;;;;;1.17;1.10;;;27.10;99.90;;;;;;5054836;28;20198;-83
2022/09/06 09:53:24;;;;;;;1.08;1.08;;;27.00;99.90;;;;;;5054687;28;20218;-82
2022/09/06 09:55:56;;;;;;;0.77;0.77;;;26.80;99.90;;;;;;5054853;28;20202;-83
2022/09/06 09:58:32;;;;;;;1.40;1.10;;;26.70;99.90;;;;;;5054565;28;20214;-83
2022/09/06 10:01:21;;;;;;;1.77;0.98;;;26.60;99.90;;;;;;5054659;28;20187;-83
2022/09/06 10:03:48;;;;;;;1.00;0.90;;;26.60;99.90;;;;;;5054262;28;20215;-82
2022/09/06 10:06:24;;;;;;;1.05;1.05;;;26.60;99.90;;;;;;5054451;28;20207;-83
2022/09/06 10:08:53;;;;;;;0.80;0.70;;;26.60;99.90;;;;;;5054510;28;20194;-82
2022/09/06 10:11:39;;;;;;;1.50;1.40;;;26.80;99.90;;;;;;5054290;28;20572;-83
2022/09/06 10:14:26;;;;;;;0.68;0.68;;;26.80;99.90;;;;;;5054370;28;20199;-82
2022/09/06 10:16:53;;;;;;;0.80;0.80;;;26.90;99.90;;;;;;5054093;28;20190;-82
2022/09/06 10:19:32;;;;;;;1.05;0.95;;;26.90;99.90;;;;;;5054018;28;20569;-83
2022/09/06 10:22:08;;;;;;;0.80;0.80;;;26.90;99.90;;;;;;5054422;28;20224;-82
2022/09/06 10:24:48;;;;;;;0.90;0.90;;;26.80;99.90;;;;;;5054172;28;20183;-82
2022/09/06 10:27:17;;;;;;;0.90;0.90;;;26.60;99.90;;;;;;5053772;28;20592;-83
2022/09/06 10:29:51;;;;;;;1.35;1.25;;;26.50;99.90;;;;;;5053795;28;20577;-83
2022/09/06 10:32:35;;;;;;;1.45;1.20;;;26.30;99.90;;;;;;5053885;28;20226;-83
2022/09/06 10:35:19;;;;;;;0.80;0.80;;;26.20;99.90;;;;;;5054323;28;20187;-83
2022/09/06 10:38:06;;;;;;;1.20;1.10;;;26.20;99.90;;;;;;5053936;28;20207;-82
2022/09/06 10:40:39;;;;;;;1.80;1.00;;;26.00;99.90;;;;;;5054300;28;20586;-83
2022/09/06 10:43:09;;;;;;;1.20;1.10;;;25.70;99.90;;;;;;5053580;28;20595;-83
2022/09/06 10:45:46;;;;;;;1.52;0.98;;;25.70;99.90;;;;;;5053453;28;20701;-83
2022/09/06 10:48:19;;;;;;;1.08;1.02;;;25.70;99.90;;;;;;5053477;28;20638;-83
2022/09/06 10:50:51;;;;;;;5.88;1.00;;;25.80;99.90;;;;;;5054386;28;20198;-83
2022/09/06 10:53:34;;;;;;;1.15;0.93;;;25.90;99.90;;;;;;5053287;28;20223;-82
2022/09/06 10:56:10;;;;;;;2.42;1.10;;;25.80;99.90;;;;;;5053799;28;20268;-83
2022/09/06 10:58:48;;;;;;;0.80;0.70;;;25.80;99.90;;;;;;5053631;28;20210;-83
2022/09/06 11:01:25;;;;;;;5.00;1.00;;;25.90;99.90;;;;;;5053664;28;20190;-84
2022/09/06 11:03:52;;;;;;;1.70;0.98;;;25.80;99.90;;;;;;5053230;28;20217;-83
2022/09/06 11:06:27;;;;;;;1.13;0.93;;;25.70;99.90;;;;;;5053468;28;20202;-82
2022/09/06 11:09:01;;;;;;;0.60;0.60;;;25.60;99.90;;;;;;5053510;28;20187;-82
2022/09/06 11:11:34;;;;;;;0.80;0.70;;;25.50;99.90;;;;;;5053486;28;20178;-84
2022/09/06 11:14:06;;;;;;;4.88;1.58;;;25.60;99.90;;;;;;5054124;28;20206;-84
2022/09/06 11:16:38;;;;;;;1.50;1.10;;;25.50;99.90;;;;;;5053592;28;20199;-83
2022/09/06 11:19:12;;;;;;;1.05;0.70;;;25.50;99.90;;;;;;5053427;28;20215;-83
2022/09/06 11:22:07;;;;;;;1.55;0.80;;;25.60;99.90;;;;;;5053256;28;20273;-82
2022/09/06 11:24:48;;;;;;;1.20;0.90;;;25.60;99.90;;;;;;5053682;28;20199;-83
2022/09/06 11:27:22;;;;;;;0.90;0.90;;;25.70;99.90;;;;;;5052769;28;20743;-83
2022/09/06 11:29:55;;;;;;;1.02;0.82;;;25.70;99.90;;;;;;5053263;28;20191;-83
2022/09/06 11:32:35;;;;;;;0.80;0.80;;;25.70;99.90;;;;;;5052811;28;20222;-83
2022/09/06 11:35:08;;;;;;;0.80;0.80;;;25.60;99.90;;;;;;5053237;28;20187;-82
2022/09/06 11:37:39;;;;;;;4.53;0.75;;;25.70;99.90;;;;;;5053090;28;20210;-82
2022/09/06 11:40:15;;;;;;;0.80;0.80;;;25.70;99.90;;;;;;5053572;28;20593;-82
2022/09/06 11:43:13;;;;;;;0.75;0.75;;;25.80;99.90;;;;;;5053095;28;20233;-82
2022/09/06 11:45:43;;;;;;;1.45;0.70;;;25.90;99.90;;;;;;5053076;28;20205;-81
2022/09/06 11:49:01;;;;;;;0.98;0.98;;;25.90;99.90;;;;;;5053114;28;20207;-81
2022/09/06 11:51:34;;;;;;;2.47;0.77;;;26.00;99.90;;;;;;5052841;28;20233;-81
2022/09/06 11:54:06;;;;;;;1.08;0.82;;;26.00;99.90;;;;;;5052911;28;20187;-82
2022/09/06 11:56:40;;;;;;;1.15;0.75;;;26.10;99.90;;;;;;5052775;28;20180;-80
2022/09/06 11:59:18;;;;;;;1.15;1.05;;;26.30;99.90;;;;;;5052435;28;20210;-80
2022/09/06 12:02:00;;;;;;;1.10;0.90;;;26.30;99.90;;;;;;5052890;28;20199;-84
2022/09/06 12:05:12;;;;;;;0.68;0.68;;;26.40;99.90;;;;;;5052905;28;20193;-80
2022/09/06 12:08:13;;;;;;;1.42;0.77;;;26.50;99.90;;;;;;5056680;28;20198;-81
2022/09/06 12:10:55;;;;;;;0.88;0.63;;;26.50;99.90;;;;;;5056593;28;20256;-80
2022/09/06 12:13:53;;;;;;;2.20;0.90;;;26.50;99.90;;;;;;5056424;28;20222;-80
2022/09/06 12:16:20;;;;;;;0.90;0.90;;;26.50;99.90;;;;;;5056494;28;20187;-80
2022/09/06 12:18:55;;;;;;;1.25;0.60;;;26.50;99.90;;;;;;5056073;28;20713;-81
2022/09/06 12:21:40;;;;;;;0.70;0.70;;;26.50;99.90;;;;;;5056381;28;20783;-80
2022/09/06 12:24:39;;;;;;;0.95;0.93;;;26.50;99.90;;;;;;5056354;28;20193;-80
2022/09/06 12:27:12;;;;;;;0.70;0.70;;;26.50;99.90;;;;;;5055671;28;20234;-80
2022/09/06 12:29:38;;;;;;;0.60;0.60;;;26.50;99.90;;;;;;5056317;28;20187;-81
2022/09/06 12:32:05;;;;;;;0.82;0.60;;;26.50;99.90;;;;;;5055743;28;20714;-80
2022/09/06 12:34:35;;;;;;;1.65;0.80;;;26.50;99.90;;;;;;5056082;28;20297;-81
2022/09/06 12:37:05;;;;;;;0.50;0.50;;;26.40;99.90;;;;;;5055706;28;20650;-80
2022/09/06 12:39:34;;;;;;;4.55;1.00;;;26.40;99.90;;;;;;5055945;28;20210;-81
2022/09/06 12:42:03;;;;;;;4.55;0.80;;;26.40;99.90;;;;;;5055922;28;20313;-81
2022/09/06 12:44:33;;;;;;;1.95;0.68;;;26.50;99.90;;;;;;5056001;28;20203;-82
2022/09/06 12:47:06;;;;;;;0.88;0.77;;;26.50;99.90;;;;;;5055516;28;20205;-81
2022/09/06 12:49:33;;;;;;;0.50;0.50;;;26.50;99.90;;;;;;5055629;28;20647;-81
2022/09/06 12:52:09;;;;;;;0.50;0.50;;;26.50;99.90;;;;;;5055453;28;20274;-80
2022/09/06 12:54:44;;;;;;;0.60;0.60;;;26.50;99.90;;;;;;5056047;28;20571;-84
2022/09/06 12:57:13;;;;;;;0.60;0.50;;;26.50;99.90;;;;;;5055764;28;20194;-81
2022/09/06 12:59:48;;;;;;;0.60;0.60;;;26.50;99.90;;;;;;5055669;28;20226;-81
2022/09/06 13:02:18;;;;;;;1.20;1.10;;;26.50;99.90;;;;;;5055470;28;20219;-81
2022/09/06 13:04:50;;;;;;;1.02;0.77;;;26.60;99.90;;;;;;5055630;28;20198;-80
2022/09/06 13:07:19;;;;;;;0.50;0.50;;;26.60;99.90;;;;;;5055290;28;20191;-81